Time;durP1;ratioP1;P1;durP2;ratioP2;P2;SDS_P1;SDS_P2;PMS_P1;PMS_P2;Temp;Humidity;BMP_temperature;BMP_pressure;BME280_temperature;BME280_humidity;BME280_pressure;Samples;Min_cycle;Max_cycle;Signal;HPM_P1;HPM_P2
2021/07/12 00:00:31;;;;;;;4.50;1.60;;;;;;;14.09;90.35;98845.25;5148126;27;20064;-77
2021/07/12 00:02:59;;;;;;;3.70;2.13;;;;;;;14.07;91.02;98853.66;5146020;27;20439;-76
2021/07/12 00:05:27;;;;;;;8.63;2.03;;;;;;;13.99;91.09;98853.91;5151395;27;20096;-76
2021/07/12 00:07:54;;;;;;;3.63;1.67;;;;;;;14.05;90.81;98847.59;5149561;27;20486;-77
2021/07/12 00:10:24;;;;;;;9.75;2.00;;;;;;;13.98;90.64;98844.03;5145731;27;20051;-77
2021/07/12 00:12:53;;;;;;;2.63;1.90;;;;;;;13.78;91.57;98825.78;5140214;27;20051;-77
2021/07/12 00:15:22;;;;;;;8.57;1.97;;;;;;;13.75;92.04;98820.75;5145818;27;20047;-77
2021/07/12 00:17:50;;;;;;;5.80;1.77;;;;;;;13.64;91.44;98813.25;5153586;27;20304;-76
2021/07/12 00:20:19;;;;;;;9.00;2.45;;;;;;;13.61;91.86;98819.13;5141322;27;20131;-76
2021/07/12 00:22:47;;;;;;;3.22;2.00;;;;;;;13.61;93.05;98816.41;5143214;27;20047;-77
2021/07/12 00:25:15;;;;;;;10.15;1.70;;;;;;;13.52;93.65;98804.00;5150069;27;20383;-77
2021/07/12 00:27:42;;;;;;;2.05;1.85;;;;;;;13.54;94.79;98808.19;5154938;27;20051;-77
2021/07/12 00:30:13;;;;;;;4.28;1.95;;;;;;;13.52;94.13;98810.31;5136208;27;20410;-77
2021/07/12 00:32:40;;;;;;;3.13;1.80;;;;;;;13.76;92.71;98819.72;5154791;27;20051;-77
2021/07/12 00:35:09;;;;;;;7.00;2.13;;;;;;;13.79;92.48;98816.56;5143074;27;20498;-77
2021/07/12 00:37:36;;;;;;;4.93;2.38;;;;;;;13.65;91.79;98814.06;5138727;27;20107;-77
2021/07/12 00:40:05;;;;;;;11.32;3.22;;;;;;;13.58;91.54;98808.63;5145911;27;20051;-77
2021/07/12 00:42:31;;;;;;;8.27;2.03;;;;;;;13.50;91.80;98795.19;5149090;27;20047;-77
2021/07/12 00:44:58;;;;;;;3.92;1.88;;;;;;;13.47;91.38;98801.06;5134659;27;20055;-77
2021/07/12 00:47:26;;;;;;;3.88;1.90;;;;;;;13.55;91.10;98804.44;5143843;27;20042;-77
2021/07/12 00:49:53;;;;;;;8.07;1.90;;;;;;;13.57;90.94;98796.84;5154743;27;20046;-77
2021/07/12 00:52:21;;;;;;;4.28;1.90;;;;;;;13.43;91.31;98778.81;5155539;27;20058;-77
2021/07/12 00:54:47;;;;;;;6.82;1.60;;;;;;;13.37;91.41;98774.19;5139237;27;20047;-76
2021/07/12 00:57:14;;;;;;;7.38;1.80;;;;;;;13.50;91.25;98781.53;5138573;27;20069;-76
2021/07/12 00:59:41;;;;;;;2.47;1.75;;;;;;;13.32;91.26;98763.06;5140711;27;20502;-76
2021/07/12 01:02:08;;;;;;;3.10;1.98;;;;;;;13.37;91.76;98766.00;5135274;27;20055;-76
2021/07/12 01:04:37;;;;;;;3.40;1.70;;;;;;;13.33;91.64;98765.56;5140014;27;20047;-76
2021/07/12 01:07:10;;;;;;;4.17;1.60;;;;;;;13.32;90.86;98763.06;5144830;27;20039;-76
2021/07/12 01:09:36;;;;;;;2.70;1.45;;;;;;;13.29;91.55;98772.50;5149336;27;20295;-76
2021/07/12 01:12:21;;;;;;;4.22;1.85;;;;;;;13.40;91.61;98771.91;5153196;27;20387;-76
2021/07/12 01:14:57;;;;;;;5.45;2.25;;;;;;;13.20;92.28;98751.94;5149727;27;20054;-76
2021/07/12 01:17:30;;;;;;;8.48;1.80;;;;;;;13.18;93.24;98763.06;5147611;27;20371;-76
2021/07/12 01:20:36;;;;;;;3.72;1.90;;;;;;;13.04;94.21;98762.25;5145243;27;20085;-77
2021/07/12 01:23:16;;;;;;;2.13;1.92;;;;;;;13.10;93.31;98758.66;5105711;27;20058;-76
2021/07/12 01:25:55;;;;;;;;;;;;;;;13.25;92.03;98766.63;5142140;27;20482;-76
2021/07/12 01:29:02;;;;;;;3.50;1.70;;;;;;;13.04;92.33;98764.97;5143583;27;19995;-76
2021/07/12 01:32:02;;;;;;;4.55;1.90;;;;;;;12.86;92.71;98754.69;5088460;28;20052;-77
2021/07/12 01:34:35;;;;;;;9.57;1.85;;;;;;;12.85;92.38;98750.28;5151533;27;20141;-77
2021/07/12 01:37:09;;;;;;;3.17;1.95;;;;;;;12.98;92.06;98752.19;5152798;27;20043;-77
2021/07/12 01:39:44;;;;;;;4.82;1.80;;;;;;;12.98;91.85;98737.72;5137801;27;20091;-77
2021/07/12 01:42:18;;;;;;;6.30;1.92;;;;;;;12.97;92.30;98746.94;5141636;27;20047;-77
2021/07/12 01:44:52;;;;;;;8.82;1.90;;;;;;;12.80;92.26;98736.44;5151726;27;20043;-77
2021/07/12 01:47:29;;;;;;;3.63;2.33;;;;;;;12.82;92.82;98749.88;5146001;27;20046;-77
2021/07/12 01:50:05;;;;;;;3.75;1.77;;;;;;;12.77;93.35;98736.00;5147927;27;20491;-77
2021/07/12 01:52:38;;;;;;;4.00;1.88;;;;;;;12.90;92.46;98753.22;5154895;27;20107;-77
2021/07/12 01:55:16;;;;;;;3.90;1.98;;;;;;;12.74;92.25;98723.66;5142389;27;20414;-77
2021/07/12 01:57:49;;;;;;;2.38;1.77;;;;;;;12.71;92.33;98735.81;5143202;27;20047;-77
2021/07/12 02:00:18;;;;;;;8.55;1.80;;;;;;;12.83;91.83;98744.19;5145835;27;20126;-77
2021/07/12 02:02:46;;;;;;;6.57;2.00;;;;;;;12.64;91.75;98734.13;5137273;27;20550;-77
2021/07/12 02:05:20;;;;;;;4.80;1.60;;;;;;;12.59;92.31;98733.94;5137399;27;20134;-77
2021/07/12 02:07:48;;;;;;;3.50;1.50;;;;;;;12.45;92.83;98716.69;5153305;27;20458;-77
2021/07/12 02:10:17;;;;;;;6.18;2.10;;;;;;;12.42;93.23;98722.56;5154756;27;20051;-77
2021/07/12 02:12:45;;;;;;;3.70;1.95;;;;;;;12.48;93.22;98743.53;5153793;27;20043;-77
2021/07/12 02:15:15;;;;;;;3.97;2.05;;;;;;;12.54;93.58;98732.66;5145615;27;20051;-77
2021/07/12 02:17:43;;;;;;;4.95;2.20;;;;;;;12.62;93.70;98734.34;5145611;27;20076;-77
2021/07/12 02:20:11;;;;;;;3.65;1.92;;;;;;;12.60;93.46;98735.59;5154522;27;20627;-77
2021/07/12 02:22:41;;;;;;;7.25;2.30;;;;;;;12.46;93.36;98718.38;5153481;27;20043;-77
2021/07/12 02:25:11;;;;;;;;;;;;;;;12.34;93.63;98732.59;5154994;27;20115;-77
2021/07/12 02:27:38;;;;;;;3.22;2.10;;;;;;;12.23;94.31;98733.22;5154258;27;19949;-77
2021/07/12 02:30:06;;;;;;;3.55;1.80;;;;;;;12.12;94.35;98728.38;5135656;27;20043;-77
2021/07/12 02:32:35;;;;;;;4.35;2.30;;;;;;;12.29;95.44;98745.19;5154172;27;20091;-76
2021/07/12 02:35:03;;;;;;;4.83;2.07;;;;;;;12.29;96.36;98746.03;5137345;27;20503;-77
2021/07/12 02:37:30;;;;;;;5.05;2.30;;;;;;;12.43;95.09;98743.31;5136407;27;20103;-77
2021/07/12 02:39:59;;;;;;;8.02;2.50;;;;;;;12.49;94.71;98748.78;5153090;27;20103;-77
2021/07/12 02:42:27;;;;;;;5.75;2.10;;;;;;;12.50;94.41;98750.47;5153898;27;20051;-77
2021/07/12 02:44:55;;;;;;;8.45;2.00;;;;;;;12.48;94.38;98748.97;5152472;27;20046;-77
2021/07/12 02:47:21;;;;;;;6.90;1.88;;;;;;;12.26;93.84;98751.88;5143003;27;20047;-77
2021/07/12 02:49:48;;;;;;;3.35;1.92;;;;;;;11.99;94.56;98726.47;5142693;27;20046;-77
2021/07/12 02:52:21;;;;;;;9.80;2.00;;;;;;;12.15;94.13;98741.56;5153447;27;20042;-77
2021/07/12 02:54:51;;;;;;;5.18;2.22;;;;;;;12.19;94.20;98748.31;5153515;27;20571;-77
2021/07/12 02:57:19;;;;;;;7.68;2.72;;;;;;;12.08;94.24;98743.47;5153620;27;20043;-77
2021/07/12 02:59:46;;;;;;;3.72;1.95;;;;;;;12.04;94.69;98740.28;5153617;27;20043;-77
2021/07/12 03:02:13;;;;;;;5.45;2.83;;;;;;;11.94;95.57;98743.41;5143129;27;20092;-77
2021/07/12 03:04:39;;;;;;;7.88;2.20;;;;;;;11.97;95.68;98734.00;5140866;27;20099;-77
2021/07/12 03:07:13;;;;;;;8.52;2.15;;;;;;;12.27;94.30;98750.00;5147949;27;20498;-77
2021/07/12 03:09:44;;;;;;;3.05;2.22;;;;;;;12.16;94.52;98754.16;5133370;27;20419;-77
2021/07/12 03:12:25;;;;;;;7.30;2.47;;;;;;;12.20;94.99;98747.25;5146896;27;20107;-77
2021/07/12 03:15:03;;;;;;;3.03;2.25;;;;;;;12.07;96.05;98736.31;5153426;27;20058;-77
2021/07/12 03:17:33;;;;;;;2.58;2.22;;;;;;;11.89;95.98;98718.63;5153406;27;20055;-77
2021/07/12 03:20:02;;;;;;;2.70;1.77;;;;;;;11.95;95.70;98741.53;5133269;27;20134;-77
2021/07/12 03:22:30;;;;;;;4.97;2.35;;;;;;;11.96;95.73;98726.88;5141791;27;20115;-77
2021/07/12 03:24:59;;;;;;;8.18;2.55;;;;;;;12.05;95.80;98739.25;5152749;27;20398;-77
2021/07/12 03:27:27;;;;;;;3.78;2.40;;;;;;;12.09;96.39;98729.63;5153707;27;20460;-77
2021/07/12 03:29:57;;;;;;;3.70;2.72;;;;;;;12.24;97.86;98723.16;5152876;27;20047;-77
2021/07/12 03:32:26;;;;;;;7.28;2.40;;;;;;;12.47;95.96;98718.16;5153495;27;20054;-77
2021/07/12 03:34:54;;;;;;;4.97;2.50;;;;;;;12.60;94.33;98724.69;5152480;27;20490;-77
2021/07/12 03:37:22;;;;;;;5.25;2.35;;;;;;;12.59;94.00;98721.13;5147537;27;20040;-77
2021/07/12 03:39:50;;;;;;;3.30;2.05;;;;;;;12.34;94.09;98716.25;5153472;27;20046;-77
2021/07/12 03:42:17;;;;;;;5.35;2.17;;;;;;;12.20;94.62;98700.94;5149381;27;20058;-77
2021/07/12 03:44:44;;;;;;;3.50;1.85;;;;;;;12.19;95.17;98715.59;5136533;27;20043;-77
2021/07/12 03:47:28;;;;;;;4.85;1.92;;;;;;;12.22;95.01;98701.56;5150135;27;20043;-77
2021/07/12 03:50:03;;;;;;;4.03;2.42;;;;;;;12.31;94.22;98694.03;5144619;27;20038;-77
2021/07/12 03:52:34;;;;;;;4.72;2.05;;;;;;;12.32;93.96;98699.28;5155678;27;20475;-77
2021/07/12 03:55:01;;;;;;;3.97;2.47;;;;;;;12.35;93.99;98707.03;5145137;27;20425;-77
2021/07/12 03:57:27;;;;;;;2.60;1.88;;;;;;;12.39;93.83;98705.59;5157365;27;20118;-77
2021/07/12 03:59:54;;;;;;;2.63;2.17;;;;;;;12.45;94.13;98716.69;5157162;27;20103;-78
2021/07/12 04:02:21;;;;;;;6.53;2.15;;;;;;;12.52;93.82;98710.19;5157209;27;20058;-77
2021/07/12 04:04:49;;;;;;;5.53;2.78;;;;;;;12.28;93.97;98711.63;5156033;27;20130;-77
2021/07/12 04:07:16;;;;;;;5.35;2.33;;;;;;;12.25;94.63;98706.59;5157257;27;20450;-77
2021/07/12 04:09:42;;;;;;;2.55;2.15;;;;;;;12.32;94.19;98712.91;5155540;27;20039;-78
2021/07/12 04:12:09;;;;;;;4.55;2.25;;;;;;;12.25;94.40;98722.13;5156905;27;20111;-77
2021/07/12 04:14:36;;;;;;;3.88;2.13;;;;;;;12.24;94.56;98709.53;5155850;27;20087;-77
2021/07/12 04:17:03;;;;;;;3.38;2.50;;;;;;;12.28;94.98;98705.34;5156938;27;20489;-78
2021/07/12 04:19:30;;;;;;;5.97;2.20;;;;;;;12.23;95.54;98714.16;5158040;27;20102;-79
2021/07/12 04:21:58;;;;;;;2.25;2.05;;;;;;;12.20;95.71;98698.22;5158509;27;20508;-79
2021/07/12 04:24:24;;;;;;;4.30;2.60;;;;;;;12.28;95.73;98703.44;5143099;27;20080;-79
2021/07/12 04:26:51;;;;;;;10.10;2.25;;;;;;;12.37;95.34;98687.75;5156100;27;20050;-79
2021/07/12 04:29:18;;;;;;;2.72;2.15;;;;;;;12.41;95.72;98689.00;5154909;27;20123;-79
2021/07/12 04:31:45;;;;;;;4.35;2.25;;;;;;;12.53;95.46;98687.34;5156052;27;20043;-79
2021/07/12 04:34:11;;;;;;;4.53;2.08;;;;;;;12.50;96.32;98663.22;5156174;27;20102;-79
2021/07/12 04:36:38;;;;;;;2.70;2.33;;;;;;;12.49;97.00;98669.72;5156062;27;20057;-79
2021/07/12 04:39:06;;;;;;;4.13;2.53;;;;;;;12.70;96.59;98673.28;5156356;27;20057;-79
2021/07/12 04:41:33;;;;;;;2.50;1.80;;;;;;;12.76;96.31;98661.53;5155726;27;20047;-79
2021/07/12 04:44:00;;;;;;;5.07;2.33;;;;;;;12.72;96.81;98663.00;5154610;27;20070;-79
2021/07/12 04:46:26;;;;;;;4.60;2.15;;;;;;;12.76;96.02;98658.81;5156879;27;20455;-79
2021/07/12 04:48:53;;;;;;;3.38;2.60;;;;;;;12.91;95.53;98653.13;5148201;27;20116;-79
2021/07/12 04:51:20;;;;;;;4.13;2.35;;;;;;;13.03;95.38;98662.31;5151816;27;20055;-79
2021/07/12 04:53:47;;;;;;;3.33;2.40;;;;;;;12.95;96.12;98648.91;5151177;27;20099;-79
2021/07/12 04:56:15;;;;;;;6.30;2.80;;;;;;;13.00;96.74;98656.47;5154677;27;20375;-78
2021/07/12 04:58:45;;;;;;;5.43;2.63;;;;;;;13.17;96.25;98665.03;5155638;27;20039;-79
2021/07/12 05:01:12;;;;;;;6.53;3.20;;;;;;;13.13;96.08;98656.44;5154850;27;20130;-80
2021/07/12 05:03:39;;;;;;;5.72;2.53;;;;;;;13.24;96.06;98658.50;5156135;27;20054;-79
2021/07/12 05:06:06;;;;;;;5.75;3.08;;;;;;;13.56;95.02;98657.78;5153961;27;20039;-79
2021/07/12 05:08:32;;;;;;;7.18;2.80;;;;;;;14.14;91.71;98659.59;5156001;27;20039;-78
2021/07/12 05:11:00;;;;;;;4.97;2.63;;;;;;;14.85;87.68;98671.25;5155092;27;20042;-79
2021/07/12 05:13:29;;;;;;;13.20;2.60;;;;;;;15.55;83.58;98664.59;5155534;27;20478;-79
2021/07/12 05:15:57;;;;;;;3.60;2.60;;;;;;;16.15;80.13;98674.78;5154479;27;20149;-79
2021/07/12 05:18:24;;;;;;;5.10;2.03;;;;;;;16.49;78.22;98666.91;5155826;27;20478;-79
2021/07/12 05:20:52;;;;;;;4.22;2.38;;;;;;;17.07;76.07;98670.81;5154349;27;20173;-79
2021/07/12 05:23:18;;;;;;;7.18;2.85;;;;;;;17.29;74.46;98670.19;5153772;27;20070;-80
2021/07/12 05:25:45;;;;;;;6.93;2.38;;;;;;;17.71;73.12;98677.41;5153368;27;20387;-80
2021/07/12 05:28:12;;;;;;;4.38;2.05;;;;;;;17.92;71.77;98659.44;5156079;27;20055;-80
2021/07/12 05:30:40;;;;;;;5.03;2.35;;;;;;;18.39;70.41;98667.44;5154500;27;20091;-79
2021/07/12 05:33:07;;;;;;;2.60;2.10;;;;;;;18.55;70.81;98658.38;5153621;27;20051;-78
2021/07/12 05:35:34;;;;;;;4.43;3.22;;;;;;;18.44;71.80;98648.28;5149655;27;20505;-79
2021/07/12 05:38:01;;;;;;;4.40;2.20;;;;;;;18.52;71.36;98639.59;5153227;27;20058;-78
2021/07/12 05:40:27;;;;;;;6.43;2.00;;;;;;;18.77;70.66;98637.50;5154739;27;20042;-78
2021/07/12 05:42:54;;;;;;;3.58;2.33;;;;;;;19.22;69.60;98636.53;5139417;27;20047;-78
2021/07/12 05:45:21;;;;;;;3.47;1.90;;;;;;;19.42;68.50;98635.97;5134352;27;20123;-78
2021/07/12 05:47:49;;;;;;;12.00;2.30;;;;;;;19.46;68.91;98631.63;5151788;27;20045;-78
2021/07/12 05:50:18;;;;;;;6.07;1.98;;;;;;;19.65;68.16;98632.16;5153090;27;20050;-78
2021/07/12 05:52:45;;;;;;;6.82;2.00;;;;;;;19.78;68.86;98637.31;5153898;27;20083;-79
2021/07/12 05:55:13;;;;;;;6.70;2.38;;;;;;;20.15;67.72;98633.81;5142518;27;20051;-78
2021/07/12 05:57:39;;;;;;;3.45;1.70;;;;;;;20.38;67.06;98634.59;5143062;27;20039;-79
2021/07/12 06:00:09;;;;;;;3.88;1.80;;;;;;;20.50;66.17;98626.97;5154427;27;20046;-79
2021/07/12 06:02:36;;;;;;;5.95;2.10;;;;;;;20.63;65.94;98614.66;5155052;27;20094;-78
2021/07/12 06:05:05;;;;;;;2.80;1.25;;;;;;;20.43;66.76;98636.56;5154309;27;20070;-78
2021/07/12 06:07:32;;;;;;;3.80;2.38;;;;;;;21.09;63.92;98613.31;5152011;27;20038;-79
2021/07/12 06:09:59;;;;;;;3.80;2.80;;;;;;;21.21;63.52;98620.31;5142677;27;20099;-79
2021/07/12 06:12:26;;;;;;;6.32;1.98;;;;;;;20.72;64.88;98637.13;5154795;27;20117;-80
2021/07/12 06:14:52;;;;;;;7.00;2.33;;;;;;;21.34;65.35;98629.22;5154290;27;20110;-79
2021/07/12 06:17:21;;;;;;;6.47;1.80;;;;;;;21.57;64.36;98622.44;5151995;27;20046;-79
2021/07/12 06:19:48;;;;;;;12.32;2.08;;;;;;;21.78;63.45;98628.88;5154448;27;20047;-79
2021/07/12 06:22:16;;;;;;;11.65;1.92;;;;;;;22.09;62.61;98628.97;5153220;27;20042;-79
2021/07/12 06:24:43;;;;;;;10.82;1.90;;;;;;;21.70;63.87;98632.19;5153263;27;20043;-79
2021/07/12 06:27:09;;;;;;;7.85;1.95;;;;;;;22.07;63.19;98631.16;5154417;27;20051;-79
2021/07/12 06:29:36;;;;;;;5.43;1.88;;;;;;;22.39;63.38;98622.69;5153723;27;20111;-79
2021/07/12 06:32:03;;;;;;;4.82;1.83;;;;;;;22.69;63.55;98625.72;5154652;27;20070;-79
2021/07/12 06:34:30;;;;;;;8.10;1.55;;;;;;;22.74;62.00;98623.78;5153242;27;20091;-79
2021/07/12 06:36:57;;;;;;;3.78;1.70;;;;;;;23.04;60.58;98621.25;5152273;27;20458;-79
2021/07/12 06:39:25;;;;;;;2.25;1.40;;;;;;;23.24;59.98;98624.00;5151875;27;20099;-79
2021/07/12 06:41:52;;;;;;;6.38;1.45;;;;;;;23.27;58.83;98612.34;5153163;27;20082;-79
2021/07/12 06:44:18;;;;;;;3.80;1.50;;;;;;;23.29;59.72;98601.81;5153037;27;20058;-79
2021/07/12 06:46:45;;;;;;;5.78;1.10;;;;;;;23.17;58.57;98597.69;5154168;27;20047;-79
2021/07/12 06:49:13;;;;;;;2.97;1.60;;;;;;;23.06;60.03;98591.31;5154111;27;20042;-79
2021/07/12 06:51:40;;;;;;;7.97;1.75;;;;;;;23.40;59.39;98599.00;5153475;27;20046;-79
2021/07/12 06:54:07;;;;;;;2.35;1.40;;;;;;;23.20;59.51;98597.97;5152896;27;20050;-78
2021/07/12 06:56:36;;;;;;;2.28;1.23;;;;;;;23.32;59.32;98604.03;5154388;27;20154;-79
2021/07/12 06:59:03;;;;;;;4.65;1.17;;;;;;;23.18;59.31;98602.13;5154094;27;20131;-79
2021/07/12 07:01:30;;;;;;;3.67;1.23;;;;;;;23.24;59.82;98593.50;5153904;27;20557;-79
2021/07/12 07:03:57;;;;;;;2.35;1.42;;;;;;;23.16;57.74;98607.94;5152987;27;20054;-79
2021/07/12 07:06:24;;;;;;;3.80;1.08;;;;;;;23.14;59.83;98601.88;5153543;27;20436;-79
2021/07/12 07:08:50;;;;;;;5.38;1.52;;;;;;;23.10;60.80;98598.00;5154074;27;20126;-79
2021/07/12 07:11:17;;;;;;;5.50;1.45;;;;;;;23.24;60.09;98589.91;5149151;27;20134;-79
2021/07/12 07:13:45;;;;;;;4.45;1.30;;;;;;;23.44;60.80;98598.16;5153609;27;20042;-79
2021/07/12 07:16:12;;;;;;;3.50;1.15;;;;;;;23.41;60.00;98589.56;5153015;27;20088;-79
2021/07/12 07:18:39;;;;;;;1.60;1.30;;;;;;;23.52;59.21;98593.13;5153050;27;20047;-79
2021/07/12 07:21:05;;;;;;;2.15;1.17;;;;;;;22.97;60.14;98577.19;5153384;27;20478;-79
2021/07/12 07:23:32;;;;;;;2.00;1.17;;;;;;;23.17;58.59;98578.28;5153010;27;20099;-79
2021/07/12 07:25:59;;;;;;;1.60;1.27;;;;;;;23.20;58.38;98581.34;5153479;27;20046;-79
2021/07/12 07:28:26;;;;;;;1.15;1.00;;;;;;;23.14;59.60;98576.91;5138112;27;20050;-78
2021/07/12 07:30:54;;;;;;;1.13;1.02;;;;;;;23.00;61.35;98575.81;5138402;27;20050;-78
2021/07/12 07:33:21;;;;;;;1.27;1.10;;;;;;;22.96;60.80;98545.88;5152699;27;20107;-79
2021/07/12 07:35:48;;;;;;;1.23;1.13;;;;;;;23.13;60.28;98542.78;5149279;27;20042;-78
2021/07/12 07:38:15;;;;;;;1.95;1.02;;;;;;;23.43;57.80;98529.09;5147025;27;20490;-78
2021/07/12 07:40:41;;;;;;;1.08;0.90;;;;;;;23.69;58.13;98527.81;5138243;27;20043;-78
2021/07/12 07:43:09;;;;;;;1.85;1.08;;;;;;;23.78;57.64;98511.41;5132932;27;20047;-78
2021/07/12 07:45:37;;;;;;;2.42;1.30;;;;;;;24.00;55.81;98511.00;5138119;27;20058;-78
2021/07/12 07:48:05;;;;;;;1.00;0.95;;;;;;;24.36;57.67;98505.16;5143155;27;20050;-78
2021/07/12 07:50:32;;;;;;;1.38;1.02;;;;;;;24.83;56.73;98501.94;5151231;27;20119;-78
2021/07/12 07:52:59;;;;;;;1.30;0.90;;;;;;;24.60;55.09;98498.00;5148660;27;20047;-78
2021/07/12 07:55:26;;;;;;;1.00;0.88;;;;;;;24.62;53.08;98498.56;5147549;27;20039;-78
2021/07/12 07:57:53;;;;;;;5.82;1.20;;;;;;;24.69;53.12;98485.97;5151506;27;20097;-78
2021/07/12 08:00:22;;;;;;;1.55;1.02;;;;;;;24.77;53.12;98492.84;5143247;27;20046;-79
2021/07/12 08:02:49;;;;;;;2.78;1.08;;;;;;;24.72;53.30;98490.09;5153330;27;20102;-78
2021/07/12 08:05:18;;;;;;;2.53;1.25;;;;;;;24.65;53.17;98482.13;5143860;27;20571;-78
2021/07/12 08:07:45;;;;;;;1.92;0.80;;;;;;;24.55;53.83;98483.03;5147782;27;20079;-78
2021/07/12 08:10:13;;;;;;;1.63;0.93;;;;;;;24.67;55.07;98481.81;5152517;27;20478;-79
2021/07/12 08:12:41;;;;;;;1.60;1.00;;;;;;;24.37;56.56;98470.72;5153204;27;20043;-78
2021/07/12 08:15:09;;;;;;;4.95;1.10;;;;;;;24.44;54.96;98464.81;5152012;27;20107;-78
2021/07/12 08:17:37;;;;;;;2.42;0.90;;;;;;;24.56;54.78;98461.63;5153557;27;20095;-78
2021/07/12 08:20:06;;;;;;;3.70;1.52;;;;;;;24.82;54.23;98451.06;5152778;27;20054;-79
2021/07/12 08:22:35;;;;;;;1.15;1.00;;;;;;;24.96;54.84;98456.75;5150161;27;20065;-79
2021/07/12 08:25:02;;;;;;;1.87;1.10;;;;;;;24.84;52.67;98442.44;5151898;27;20042;-78
2021/07/12 08:27:30;;;;;;;5.18;1.38;;;;;;;24.84;56.71;98454.41;5148944;27;20292;-78
2021/07/12 08:29:57;;;;;;;4.00;1.10;;;;;;;25.29;53.99;98453.25;5155115;27;20497;-78
2021/07/12 08:32:24;;;;;;;1.48;1.20;;;;;;;25.65;55.80;98459.16;5155603;27;20047;-78
2021/07/12 08:34:51;;;;;;;2.85;1.25;;;;;;;25.57;49.85;98457.06;5154323;27;20047;-78
2021/07/12 08:37:22;;;;;;;1.27;0.88;;;;;;;25.29;53.25;98450.47;5157634;27;20205;-78
2021/07/12 08:39:52;;;;;;;6.30;2.20;;;;;;;25.42;51.30;98444.22;5157678;27;20047;-78
2021/07/12 08:42:20;;;;;;;2.13;1.10;;;;;;;25.32;52.17;98436.00;5149038;27;20052;-78
2021/07/12 08:44:47;;;;;;;0.90;0.70;;;;;;;25.24;52.89;98426.34;5155608;27;20125;-78
2021/07/12 08:47:13;;;;;;;2.55;1.35;;;;;;;25.37;51.42;98422.84;5156508;27;20055;-78
2021/07/12 08:49:40;;;;;;;1.13;1.00;;;;;;;25.26;50.53;98416.59;5154954;27;20046;-78
2021/07/12 08:52:07;;;;;;;1.02;0.90;;;;;;;25.27;50.18;98431.31;5156456;27;20039;-78
2021/07/12 08:54:35;;;;;;;0.85;0.85;;;;;;;25.34;49.83;98422.63;5145656;27;20402;-78
2021/07/12 08:57:03;;;;;;;2.33;0.75;;;;;;;25.67;50.59;98422.66;5152831;27;20551;-78
2021/07/12 08:59:33;;;;;;;0.80;0.80;;;;;;;25.74;49.55;98423.13;5154978;27;20050;-78
2021/07/12 09:02:18;;;;;;;1.70;0.90;;;;;;;25.75;50.23;98402.53;5154764;27;20042;-78
2021/07/12 09:04:46;;;;;;;1.75;0.95;;;;;;;25.60;48.71;98423.06;5156071;27;20050;-79
2021/07/12 09:07:15;;;;;;;1.75;1.00;;;;;;;25.89;49.25;98424.81;5155218;27;20440;-78
2021/07/12 09:09:56;;;;;;;1.67;0.82;;;;;;;25.85;50.10;98421.84;5156373;27;20043;-79
2021/07/12 09:12:37;;;;;;;1.73;0.90;;;;;;;25.61;50.68;98408.03;5147955;27;20565;-79
2021/07/12 09:15:05;;;;;;;2.17;0.90;;;;;;;25.75;50.78;98425.59;5154818;27;20489;-78
2021/07/12 09:17:34;;;;;;;4.47;1.00;;;;;;;25.79;48.76;98420.28;5155294;27;20127;-79
2021/07/12 09:20:01;;;;;;;3.10;0.90;;;;;;;25.94;48.29;98406.09;5155873;27;20509;-78
2021/07/12 09:22:35;;;;;;;1.08;0.93;;;;;;;26.02;50.52;98414.91;5154829;27;20039;-78
2021/07/12 09:25:05;;;;;;;2.47;1.00;;;;;;;26.12;48.55;98407.19;5155629;27;20074;-79
2021/07/12 09:27:34;;;;;;;1.35;0.95;;;;;;;26.30;48.33;98411.06;5156221;27;20061;-79
2021/07/12 09:30:02;;;;;;;3.38;1.10;;;;;;;26.22;47.01;98416.50;5150380;27;20099;-78
2021/07/12 09:32:31;;;;;;;1.75;0.95;;;;;;;26.24;48.08;98420.63;5135070;27;20096;-79
2021/07/12 09:35:01;;;;;;;4.47;1.13;;;;;;;26.49;48.96;98405.38;5144802;27;20103;-79
2021/07/12 09:37:31;;;;;;;3.22;1.10;;;;;;;26.84;48.34;98405.84;5155892;27;20049;-79
2021/07/12 09:39:59;;;;;;;2.55;0.95;;;;;;;26.70;46.96;98405.00;5154760;27;20067;-78
2021/07/12 09:42:30;;;;;;;1.20;1.00;;;;;;;26.53;46.83;98399.19;5154424;27;20539;-79
2021/07/12 09:45:06;;;;;;;1.25;1.13;;;;;;;26.72;47.41;98402.72;5154421;27;20379;-78
2021/07/12 09:47:34;;;;;;;0.85;0.82;;;;;;;26.71;48.92;98417.81;5140360;27;20043;-78
2021/07/12 09:50:03;;;;;;;1.90;1.05;;;;;;;27.09;45.85;98414.78;5154916;27;20436;-78
2021/07/12 09:52:38;;;;;;;2.00;1.10;;;;;;;27.06;44.73;98412.63;5154781;27;20042;-79
2021/07/12 09:55:06;;;;;;;2.50;0.93;;;;;;;27.02;43.74;98406.00;5155168;27;20099;-79
2021/07/12 09:57:33;;;;;;;1.30;0.85;;;;;;;26.91;46.69;98424.94;5151070;27;20067;-78
2021/07/12 10:00:05;;;;;;;2.38;1.00;;;;;;;27.19;45.38;98420.16;5138617;27;20049;-78
2021/07/12 10:02:34;;;;;;;1.13;0.80;;;;;;;27.25;46.01;98420.88;5140647;27;20039;-78
2021/07/12 10:05:02;;;;;;;0.85;0.85;;;;;;;27.07;45.40;98405.06;5136308;27;20101;-77
2021/07/12 10:07:30;;;;;;;1.63;1.20;;;;;;;27.00;46.68;98408.28;5152784;27;20502;-77
2021/07/12 10:09:58;;;;;;;1.45;1.15;;;;;;;26.93;46.48;98407.88;5154218;27;20110;-78
2021/07/12 10:12:25;;;;;;;3.28;0.95;;;;;;;27.05;45.58;98410.16;5154791;27;20047;-79
2021/07/12 10:14:52;;;;;;;1.40;1.02;;;;;;;27.08;46.06;98412.31;5153882;27;20047;-78
2021/07/12 10:17:21;;;;;;;2.13;1.10;;;;;;;26.95;45.14;98402.81;5153697;27;20054;-79
2021/07/12 10:19:48;;;;;;;1.55;1.13;;;;;;;27.16;47.32;98386.47;5146865;27;20050;-78
2021/07/12 10:22:16;;;;;;;0.70;0.70;;;;;;;27.60;46.11;98375.72;5152233;27;20088;-79
2021/07/12 10:24:46;;;;;;;3.40;1.17;;;;;;;27.65;45.09;98370.00;5153733;27;20092;-79
2021/07/12 10:27:24;;;;;;;2.40;1.17;;;;;;;27.48;44.75;98379.88;5154387;27;20046;-79
2021/07/12 10:29:52;;;;;;;1.60;0.90;;;;;;;27.41;44.69;98384.25;5154599;27;20043;-79
2021/07/12 10:32:22;;;;;;;2.25;0.70;;;;;;;27.63;44.90;98370.31;5153899;27;20102;-79
2021/07/12 10:34:53;;;;;;;1.65;1.00;;;;;;;28.02;43.27;98371.59;5154418;27;20085;-79
2021/07/12 10:37:29;;;;;;;1.40;0.90;;;;;;;27.90;43.79;98360.16;5153119;27;20074;-79
2021/07/12 10:40:14;;;;;;;0.88;0.85;;;;;;;28.17;42.92;98373.16;5154009;27;20046;-79
2021/07/12 10:42:58;;;;;;;1.10;1.00;;;;;;;27.76;43.30;98363.00;5151885;27;20046;-79
2021/07/12 10:45:52;;;;;;;3.78;1.08;;;;;;;27.54;44.13;98364.66;5154008;27;20050;-79
2021/07/12 10:48:20;;;;;;;1.33;1.00;;;;;;;27.45;44.29;98360.16;5153728;27;20165;-79
2021/07/12 10:50:52;;;;;;;1.80;0.90;;;;;;;27.27;43.79;98368.34;5153947;27;20054;-79
2021/07/12 10:54:07;;;;;;;1.27;0.80;;;;;;;27.41;45.20;98390.66;5152072;27;20466;-79
2021/07/12 10:56:47;;;;;;;1.77;1.20;;;;;;;27.26;44.66;98383.44;5138957;27;20133;-79
2021/07/12 10:59:26;;;;;;;2.97;1.75;;;;;;;27.41;44.77;98401.00;5153498;27;20090;-79
2021/07/12 11:01:53;;;;;;;2.40;0.90;;;;;;;27.46;43.30;98400.88;5143342;27;20038;-79
2021/07/12 11:04:37;;;;;;;1.95;1.10;;;;;;;27.17;42.58;98391.75;5153172;27;20047;-79
2021/07/12 11:07:07;;;;;;;1.10;1.00;;;;;;;27.12;44.42;98397.41;5154057;27;20453;-79
2021/07/12 11:09:53;;;;;;;1.70;1.10;;;;;;;27.09;43.35;98392.47;5153362;27;20054;-79
2021/07/12 11:12:37;;;;;;;1.90;1.10;;;;;;;27.24;45.06;98393.28;5153205;27;20107;-78
2021/07/12 11:15:14;;;;;;;0.90;0.77;;;;;;;27.70;45.62;98395.00;5153370;27;20107;-79
2021/07/12 11:18:00;;;;;;;3.10;1.00;;;;;;;27.85;45.01;98386.25;5153011;27;20103;-78
2021/07/12 11:20:47;;;;;;;2.20;1.20;;;;;;;27.83;45.37;98393.28;5146711;27;20050;-78
2021/07/12 11:23:46;;;;;;;1.02;0.93;;;;;;;28.17;45.55;98377.91;5153605;27;20055;-78
2021/07/12 11:26:35;;;;;;;0.97;0.83;;;;;;;28.09;45.59;98373.91;5152721;27;20051;-79
2021/07/12 11:29:13;;;;;;;2.75;0.90;;;;;;;28.12;45.59;98392.00;5152579;27;20103;-78
2021/07/12 11:31:40;;;;;;;3.70;1.00;;;;;;;28.04;44.89;98396.41;5152949;27;20088;-79
2021/07/12 11:34:07;;;;;;;1.83;1.10;;;;;;;27.98;44.69;98392.91;5153420;27;20047;-79
2021/07/12 11:36:35;;;;;;;1.40;0.90;;;;;;;28.03;46.27;98386.38;5152303;27;20038;-78
2021/07/12 11:39:02;;;;;;;0.70;0.70;;;;;;;27.99;43.69;98382.59;5153471;27;20043;-78
2021/07/12 11:41:29;;;;;;;4.75;1.10;;;;;;;27.78;43.99;98369.09;5152756;27;20060;-79
2021/07/12 11:44:06;;;;;;;1.10;1.00;;;;;;;27.97;44.24;98373.69;5153029;27;20047;-78
2021/07/12 11:46:33;;;;;;;1.10;1.00;;;;;;;28.04;44.90;98360.09;5144719;27;20043;-79